Tindal, Australia
Current Conditions -  °F | °C
As of 3:00 AM on Tuesday 21 Oct 2014 (Local Time) from YPTN Reporting Station
Clear Clear  
Wind Chill: 77°   Ceiling: Unl
Heat Index: 78°   Visibility: 6mi
Dew Point: 54°   Wind: 3mph
Humidity: 44%   Direction: 330°NNW
Pressure: 29.91"   Gusts: NA
Location:  14.52°S, 132.38°E
Report Text: YPTN 201800Z AUTO 33003KT 9999 // NCD 25/12 Q1013
Loading
Personal Weather Stations






























Interactive Weather Map
Tropical Storm Tracking
New forecast layout! Learn more

10-Day Weather Forecast

Advertisements
Track Severe Weather on mobile